Time;durP1;ratioP1;P1;durP2;ratioP2;P2;SDS_P1;SDS_P2;PMS_P1;PMS_P2;Temp;Humidity;BMP_temperature;BMP_pressure;BME280_temperature;BME280_humidity;BME280_pressure;Samples;Min_cycle;Max_cycle;Signal;HPM_P1;HPM_P2
2021/07/24 00:00:40;;;;;;;21.20;13.65;;;;;;;14.76;100.00;101377.81;3604164;39;20039;-64
2021/07/24 00:03:06;;;;;;;21.88;13.85;;;;;;;14.74;100.00;101374.38;3593476;39;20064;-64
2021/07/24 00:05:34;;;;;;;19.48;13.77;;;;;;;14.79;100.00;101382.91;3595586;40;20360;-64
2021/07/24 00:08:00;;;;;;;20.23;12.82;;;;;;;14.81;100.00;101370.06;3592664;40;20035;-65
2021/07/24 00:10:26;;;;;;;20.65;13.20;;;;;;;14.79;100.00;101369.38;3591063;40;20054;-63
2021/07/24 00:12:54;;;;;;;18.30;13.32;;;;;;;14.73;100.00;101373.53;3593847;40;20032;-64
2021/07/24 00:15:21;;;;;;;22.50;13.35;;;;;;;14.74;100.00;101368.94;3590349;40;20091;-64
2021/07/24 00:17:47;;;;;;;18.05;13.02;;;;;;;14.76;100.00;101369.66;3594620;40;20318;-64
2021/07/24 00:20:14;;;;;;;18.63;13.15;;;;;;;14.70;100.00;101361.13;3593230;40;20035;-65
2021/07/24 00:22:40;;;;;;;18.98;13.20;;;;;;;14.67;100.00;101357.88;3590895;40;20044;-64
2021/07/24 00:27:37;;;;;;;20.40;13.20;;;;;;;14.63;100.00;101365.44;3624131;22;20075;-64
2021/07/24 00:30:06;;;;;;;19.80;12.68;;;;;;;14.58;100.00;101358.75;3596479;39;20324;-65
2021/07/24 00:32:32;;;;;;;21.52;13.35;;;;;;;14.50;100.00;101349.53;3593964;40;20028;-64
2021/07/24 00:35:00;;;;;;;20.35;13.88;;;;;;;14.51;100.00;101355.78;3596271;39;20094;-64
2021/07/24 00:37:26;;;;;;;20.42;13.82;;;;;;;14.43;100.00;101344.81;3591918;40;20036;-65
2021/07/24 00:39:52;;;;;;;22.42;14.23;;;;;;;14.41;100.00;101338.72;3597398;40;20069;-65
2021/07/24 00:42:22;;;;;;;18.58;13.27;;;;;;;14.47;100.00;101340.81;3597742;39;20072;-65
2021/07/24 00:44:49;;;;;;;;;;;;;;;14.44;100.00;101335.72;3598805;40;20044;-65
2021/07/24 00:47:19;;;;;;;20.00;13.43;;;;;;;14.33;100.00;101344.91;3597635;40;19950;-63
2021/07/24 00:49:46;;;;;;;21.70;13.93;;;;;;;14.26;100.00;101344.63;3598437;40;20052;-63
2021/07/24 00:52:13;;;;;;;19.48;13.27;;;;;;;14.22;100.00;101337.78;3596974;39;20051;-63
2021/07/24 00:54:40;;;;;;;21.88;14.77;;;;;;;14.22;100.00;101340.50;3597836;40;20478;-64
2021/07/24 00:57:07;;;;;;;21.92;14.02;;;;;;;14.24;100.00;101327.69;3598023;40;20043;-63
2021/07/24 00:59:34;;;;;;;24.63;14.18;;;;;;;14.24;100.00;101319.56;3598153;39;20101;-63
2021/07/24 01:02:01;;;;;;;21.48;14.38;;;;;;;14.27;100.00;101319.25;3594879;40;20024;-65
2021/07/24 01:04:29;;;;;;;19.60;14.10;;;;;;;14.23;100.00;101325.97;3593270;40;20052;-63
2021/07/24 01:06:57;;;;;;;21.27;14.57;;;;;;;14.15;100.00;101324.00;3596227;40;20090;-63
2021/07/24 01:12:37;;;;;;;22.90;15.02;;;;;;;14.17;100.00;101315.75;3608717;22;20420;-63
2021/07/24 01:15:05;;;;;;;23.58;15.15;;;;;;;14.16;100.00;101311.31;3606221;39;20041;-63
2021/07/24 01:17:31;;;;;;;22.45;13.88;;;;;;;14.16;100.00;101314.03;3602441;39;20114;-63
2021/07/24 01:19:59;;;;;;;20.90;15.25;;;;;;;14.14;100.00;101313.34;3604579;39;20124;-63
2021/07/24 01:22:28;;;;;;;23.73;15.73;;;;;;;14.07;100.00;101309.50;3601850;39;20041;-64
2021/07/24 01:24:54;;;;;;;22.15;14.52;;;;;;;14.07;100.00;101309.50;3598097;39;20044;-63
2021/07/24 01:27:20;;;;;;;23.80;15.80;;;;;;;14.01;100.00;101303.66;3599710;39;20036;-64
2021/07/24 01:29:47;;;;;;;25.55;15.60;;;;;;;13.99;100.00;101297.56;3601456;39;20032;-65
2021/07/24 01:32:13;;;;;;;22.67;14.68;;;;;;;13.94;100.00;101305.28;3603862;39;20032;-63
2021/07/24 01:34:40;;;;;;;23.70;15.52;;;;;;;13.93;100.00;101295.47;3604142;39;20057;-63
2021/07/24 01:37:06;;;;;;;25.25;15.48;;;;;;;13.96;100.00;101294.31;3604992;39;20063;-65
2021/07/24 01:39:34;;;;;;;22.48;14.43;;;;;;;13.94;100.00;101296.28;3606023;39;20404;-63
2021/07/24 01:42:01;;;;;;;25.67;14.68;;;;;;;13.99;100.00;101294.84;3602248;39;20286;-65
2021/07/24 01:44:27;;;;;;;26.20;14.93;;;;;;;14.00;100.00;101290.28;3605283;39;20062;-65
2021/07/24 01:46:54;;;;;;;23.38;15.02;;;;;;;13.91;100.00;101289.31;3602402;39;20040;-63
2021/07/24 01:55:03;;;;;;;25.85;16.27;;;;;;;13.88;100.00;101265.25;3603554;39;20147;-63
2021/07/24 01:57:30;;;;;;;23.23;15.68;;;;;;;13.91;100.00;101259.56;3604884;39;20038;-63
2021/07/24 02:02:36;;;;;;;27.08;15.40;;;;;;;13.92;100.00;101233.38;3623708;22;20140;-62
2021/07/24 02:05:03;;;;;;;23.48;15.95;;;;;;;13.86;100.00;101232.09;3604940;39;20047;-65
2021/07/24 02:07:36;;;;;;;27.85;15.80;;;;;;;13.77;100.00;101224.88;3602088;39;20032;-63
2021/07/24 02:10:04;;;;;;;24.27;15.77;;;;;;;13.80;100.00;101230.00;3602116;39;20031;-65
2021/07/24 02:12:32;;;;;;;29.20;15.38;;;;;;;13.80;100.00;101230.00;3602978;39;20321;-63
2021/07/24 02:14:59;;;;;;;25.60;16.17;;;;;;;13.76;100.00;101228.59;3608120;39;20043;-65
2021/07/24 02:17:27;;;;;;;23.95;15.48;;;;;;;13.76;100.00;101234.84;3600403;39;20036;-63
2021/07/24 02:19:54;;;;;;;24.77;15.88;;;;;;;13.82;100.00;101225.28;3598336;39;20054;-64
2021/07/24 02:22:20;;;;;;;27.02;15.88;;;;;;;13.80;100.00;101219.19;3599446;39;20089;-63
2021/07/24 02:24:47;;;;;;;27.15;16.70;;;;;;;13.80;100.00;101213.75;3597011;39;21097;-63
2021/07/24 02:27:15;;;;;;;23.92;15.52;;;;;;;13.76;100.00;101212.34;3596659;39;20117;-65
2021/07/24 02:29:42;;;;;;;24.23;15.98;;;;;;;13.80;100.00;101213.75;3597860;39;20318;-63
2021/07/24 02:32:08;;;;;;;25.23;16.20;;;;;;;13.78;100.00;101215.75;3596678;39;20035;-63
2021/07/24 02:34:35;;;;;;;24.92;15.68;;;;;;;13.78;100.00;101218.44;3597156;39;20035;-65
2021/07/24 02:37:01;;;;;;;26.40;16.15;;;;;;;13.78;100.00;101213.03;3595595;39;20216;-61
2021/07/24 02:39:28;;;;;;;24.10;15.77;;;;;;;13.67;100.00;101214.94;3599487;39;20035;-65
2021/07/24 02:41:54;;;;;;;25.42;16.52;;;;;;;13.63;100.00;101210.84;3602106;39;20060;-64
2021/07/24 02:44:22;;;;;;;26.17;16.58;;;;;;;13.63;100.00;101227.06;3607025;39;20332;-63
2021/07/24 02:46:48;;;;;;;24.50;15.70;;;;;;;13.59;100.00;101228.34;3605382;39;20047;-63
2021/07/24 02:49:15;;;;;;;28.17;16.83;;;;;;;13.62;100.00;101228.06;3605971;39;20027;-63
2021/07/24 02:51:42;;;;;;;25.02;16.13;;;;;;;13.60;100.00;101230.06;3603739;39;20055;-63
2021/07/24 02:54:08;;;;;;;28.88;15.88;;;;;;;13.60;100.00;101221.09;3602701;39;20058;-63
2021/07/24 02:56:34;;;;;;;26.95;16.63;;;;;;;13.56;100.00;101223.25;3603221;39;20375;-63
2021/07/24 02:59:01;;;;;;;28.10;16.77;;;;;;;13.59;100.00;101212.13;3603251;39;20032;-63
2021/07/24 03:01:29;;;;;;;24.60;15.98;;;;;;;13.57;100.00;101202.44;3604383;39;20056;-63
2021/07/24 03:03:55;;;;;;;25.08;15.93;;;;;;;13.50;100.00;101204.91;3604022;39;20028;-65
2021/07/24 03:06:21;;;;;;;26.70;15.95;;;;;;;13.46;100.00;101206.19;3605091;39;20410;-63
2021/07/24 03:08:48;;;;;;;28.40;16.92;;;;;;;13.46;100.00;101190.81;3603604;39;20038;-64
2021/07/24 03:11:14;;;;;;;26.17;16.48;;;;;;;13.41;100.00;101192.25;3607058;39;20109;-63
2021/07/24 03:13:41;;;;;;;25.33;16.10;;;;;;;13.43;100.00;101174.03;3603615;39;20034;-63
2021/07/24 03:16:07;;;;;;;23.45;15.07;;;;;;;13.38;100.00;101176.31;3603690;39;20283;-65
2021/07/24 03:18:35;;;;;;;25.27;15.90;;;;;;;13.35;100.00;101169.34;3600212;39;20024;-64
2021/07/24 03:21:01;;;;;;;25.20;16.38;;;;;;;13.39;100.00;101172.63;3603476;39;20031;-64
2021/07/24 03:23:28;;;;;;;27.98;16.83;;;;;;;13.35;100.00;101165.81;3604443;39;20059;-65
2021/07/24 03:25:54;;;;;;;25.02;16.08;;;;;;;13.36;100.00;101156.69;3607551;39;20059;-65
2021/07/24 03:28:20;;;;;;;24.63;15.45;;;;;;;13.32;100.00;101140.75;3603971;39;20387;-63
2021/07/24 03:30:47;;;;;;;27.63;16.48;;;;;;;13.36;100.00;101151.28;3606591;39;20038;-63
2021/07/24 03:33:13;;;;;;;27.83;16.63;;;;;;;13.30;100.00;101164.34;3603798;39;20099;-63
2021/07/24 03:35:41;;;;;;;25.55;15.35;;;;;;;13.30;100.00;101164.34;3602644;39;20052;-65
2021/07/24 03:38:08;;;;;;;25.75;16.55;;;;;;;13.28;100.00;101171.78;3602805;39;20048;-63
2021/07/24 03:40:34;;;;;;;24.55;15.13;;;;;;;13.29;100.00;101170.78;3603332;39;20046;-63
2021/07/24 03:43:01;;;;;;;25.77;15.90;;;;;;;13.30;100.00;101174.31;3602647;39;20412;-63
2021/07/24 03:45:27;;;;;;;27.88;16.35;;;;;;;13.31;100.00;101186.84;3603235;39;20418;-63
2021/07/24 03:47:54;;;;;;;24.20;15.00;;;;;;;13.25;100.00;101185.56;3604773;39;20030;-63
2021/07/24 03:50:20;;;;;;;28.50;15.73;;;;;;;13.27;100.00;101172.75;3603600;39;20043;-63
2021/07/24 03:52:48;;;;;;;25.67;15.15;;;;;;;13.30;100.00;101163.50;3604658;39;20023;-63
2021/07/24 03:55:15;;;;;;;27.58;15.60;;;;;;;13.28;100.00;101166.38;3600612;39;20047;-63
2021/07/24 03:57:41;;;;;;;25.48;14.98;;;;;;;13.29;100.00;101165.38;3599174;39;20040;-63
2021/07/24 04:00:09;;;;;;;24.88;14.73;;;;;;;13.27;100.00;101156.53;3598615;39;20040;-63
2021/07/24 04:05:40;;;;;;;26.33;15.48;;;;;;;13.38;100.00;101168.22;3623213;22;20098;-63
2021/07/24 04:08:09;;;;;;;23.25;14.95;;;;;;;13.48;100.00;101167.16;3586131;39;20125;-63
2021/07/24 04:10:36;;;;;;;24.88;14.73;;;;;;;13.50;100.00;101180.56;3587176;39;20030;-65
2021/07/24 04:13:03;;;;;;;23.02;14.82;;;;;;;13.51;100.00;101174.13;3587893;39;20370;-62
2021/07/24 04:15:29;;;;;;;24.10;14.25;;;;;;;13.52;100.00;101167.75;3588035;39;20028;-63
2021/07/24 04:17:57;;;;;;;25.45;15.07;;;;;;;13.50;100.00;101158.94;3595166;39;20047;-64
2021/07/24 04:23:16;;;;;;;25.08;14.40;;;;;;;13.56;100.00;101134.00;3630916;22;20036;-64
2021/07/24 04:25:42;;;;;;;24.50;15.52;;;;;;;13.59;100.00;101130.13;3601559;39;20034;-63
2021/07/24 04:28:08;;;;;;;24.60;14.82;;;;;;;13.60;100.00;101126.44;3604254;39;20043;-63
2021/07/24 04:30:35;;;;;;;24.55;14.70;;;;;;;13.59;100.00;101124.72;3605016;39;20034;-63
2021/07/24 04:33:01;;;;;;;21.52;13.65;;;;;;;13.64;100.00;101127.84;3603329;39;20035;-64
2021/07/24 04:35:28;;;;;;;24.65;13.98;;;;;;;13.66;100.00;101136.63;3601433;39;20036;-63
2021/07/24 04:37:54;;;;;;;26.55;14.90;;;;;;;13.71;100.00;101136.22;3600459;39;20032;-63
2021/07/24 04:40:22;;;;;;;23.85;14.63;;;;;;;13.71;100.00;101133.50;3602112;39;20034;-64
2021/07/24 04:42:48;;;;;;;24.73;13.75;;;;;;;13.80;100.00;101133.44;3603158;39;20038;-62
2021/07/24 04:45:15;;;;;;;24.73;13.35;;;;;;;13.91;100.00;101129.66;3603199;39;20032;-63
2021/07/24 04:47:42;;;;;;;21.95;13.40;;;;;;;14.02;100.00;101126.75;3606299;39;20032;-63
2021/07/24 04:50:09;;;;;;;20.35;12.95;;;;;;;14.14;100.00;101123.84;3602611;39;20036;-64
2021/07/24 04:52:37;;;;;;;26.23;13.38;;;;;;;14.19;100.00;101121.50;3601442;39;20045;-63
2021/07/24 04:55:04;;;;;;;23.02;13.70;;;;;;;14.28;100.00;101120.63;3602114;39;20128;-63
2021/07/24 04:57:34;;;;;;;19.83;12.50;;;;;;;14.42;100.00;101131.91;3599499;39;20397;-63
2021/07/24 05:00:01;;;;;;;22.88;13.50;;;;;;;14.58;100.00;101115.81;3598842;39;20043;-63
2021/07/24 05:02:28;;;;;;;22.08;13.40;;;;;;;14.77;100.00;101113.97;3602153;39;20051;-63
2021/07/24 05:04:54;;;;;;;24.55;13.05;;;;;;;14.95;100.00;101105.78;3602977;39;20027;-63
2021/07/24 05:07:22;;;;;;;18.20;12.43;;;;;;;14.92;100.00;101096.13;3605193;39;20036;-63
2021/07/24 05:09:48;;;;;;;21.10;13.32;;;;;;;14.88;100.00;101102.84;3605107;39;20038;-64
2021/07/24 05:12:15;;;;;;;17.05;11.60;;;;;;;15.05;100.00;101109.25;3603790;39;20402;-63
2021/07/24 05:14:43;;;;;;;17.90;11.52;;;;;;;15.21;100.00;101112.06;3602696;39;20055;-63
2021/07/24 05:17:11;;;;;;;20.00;12.35;;;;;;;15.35;100.00;101102.47;3602543;39;20063;-62
2021/07/24 05:19:38;;;;;;;18.75;11.98;;;;;;;15.39;100.00;101089.44;3603187;39;20032;-63
2021/07/24 05:22:05;;;;;;;20.73;11.98;;;;;;;15.37;100.00;101089.59;3604314;39;20057;-63
2021/07/24 05:24:32;;;;;;;20.10;11.85;;;;;;;15.47;100.00;101083.19;3598542;39;20032;-63
2021/07/24 05:26:58;;;;;;;18.67;11.82;;;;;;;15.48;100.00;101077.63;3604354;39;20077;-63
2021/07/24 05:29:25;;;;;;;18.02;11.27;;;;;;;15.50;100.00;101062.03;3600711;39;20022;-63
2021/07/24 05:31:53;;;;;;;19.17;11.52;;;;;;;15.31;100.00;101060.44;3599516;39;20047;-63
2021/07/24 05:34:19;;;;;;;20.35;11.90;;;;;;;15.26;100.00;101056.50;3599349;39;20045;-63
2021/07/24 05:36:46;;;;;;;17.80;10.95;;;;;;;15.31;100.00;101065.84;3601603;39;20358;-63
2021/07/24 05:39:13;;;;;;;16.23;10.88;;;;;;;15.50;100.00;101072.88;3600095;39;20036;-62
2021/07/24 05:41:39;;;;;;;17.60;11.55;;;;;;;15.44;100.00;101078.94;3605239;39;20286;-63
2021/07/24 05:44:06;;;;;;;17.85;11.18;;;;;;;15.48;100.00;101085.75;3602932;39;20035;-62
2021/07/24 05:46:32;;;;;;;16.73;10.55;;;;;;;15.66;100.00;101074.78;3600679;39;20039;-64
2021/07/24 05:49:00;;;;;;;17.40;11.10;;;;;;;15.77;100.00;101049.22;3603219;39;20317;-63
2021/07/24 05:51:26;;;;;;;17.70;11.18;;;;;;;15.81;100.00;101038.91;3601291;39;20048;-63
2021/07/24 05:53:53;;;;;;;18.33;10.75;;;;;;;15.68;100.00;101045.66;3600870;39;20039;-64
2021/07/24 05:56:19;;;;;;;18.33;11.52;;;;;;;15.68;100.00;101044.78;3603105;39;20047;-63
2021/07/24 05:58:46;;;;;;;18.38;10.73;;;;;;;15.80;100.00;101056.22;3603415;39;20028;-65
2021/07/24 06:01:13;;;;;;;17.50;11.88;;;;;;;15.91;100.00;101064.03;3601855;39;20040;-64
2021/07/24 06:03:40;;;;;;;16.23;11.30;;;;;;;16.19;100.00;101063.75;3647557;22;20051;-63
2021/07/24 06:06:07;;;;;;;17.02;10.43;;;;;;;16.25;100.00;101072.09;3579675;40;20044;-63
2021/07/24 06:08:34;;;;;;;18.33;11.00;;;;;;;16.44;100.00;101075.47;3579556;40;20392;-63
2021/07/24 06:11:01;;;;;;;16.67;10.73;;;;;;;16.40;100.00;101084.97;3582929;40;20037;-63
2021/07/24 06:13:27;;;;;;;17.33;10.75;;;;;;;16.51;100.00;101079.22;3583731;40;20025;-65
2021/07/24 06:15:54;;;;;;;15.82;10.40;;;;;;;16.55;100.00;101071.56;3581257;40;20053;-63
2021/07/24 06:18:21;;;;;;;15.68;10.00;;;;;;;16.80;100.00;101062.38;3582236;40;20045;-63
2021/07/24 06:20:48;;;;;;;15.30;10.23;;;;;;;16.88;100.00;101052.56;3577379;40;20056;-63
2021/07/24 06:23:16;;;;;;;15.45;9.85;;;;;;;16.53;100.00;101055.44;3578985;40;20029;-63
2021/07/24 06:25:43;;;;;;;14.90;10.38;;;;;;;16.64;100.00;101051.53;3575945;40;20048;-63
2021/07/24 06:28:09;;;;;;;15.65;9.82;;;;;;;16.82;100.00;101046.75;3582313;40;20330;-63
2021/07/24 06:30:35;;;;;;;15.35;10.13;;;;;;;17.01;100.00;101031.13;3576812;40;20036;-64
2021/07/24 06:33:02;;;;;;;12.48;9.00;;;;;;;17.17;100.00;101022.91;3581277;40;20307;-64
2021/07/24 06:35:28;;;;;;;14.85;9.75;;;;;;;17.32;100.00;101019.44;3576499;40;20032;-65
2021/07/24 06:37:55;;;;;;;13.75;8.93;;;;;;;17.50;100.00;101025.50;3581413;40;20039;-63
2021/07/24 06:40:23;;;;;;;13.25;8.80;;;;;;;17.58;100.00;101034.63;3573901;40;20029;-63
2021/07/24 06:42:50;;;;;;;15.02;10.05;;;;;;;17.58;100.00;101021.00;3577925;40;20045;-63
2021/07/24 06:45:16;;;;;;;15.15;9.48;;;;;;;17.77;100.00;101011.53;3582599;40;20025;-64
2021/07/24 06:47:43;;;;;;;12.98;9.25;;;;;;;17.76;100.00;101013.44;3575791;40;20050;-64
2021/07/24 06:50:10;;;;;;;13.50;9.13;;;;;;;18.04;100.00;101024.66;3576331;40;20045;-62
2021/07/24 06:52:36;;;;;;;15.55;8.90;;;;;;;18.19;100.00;101035.63;3579436;40;20530;-64
2021/07/24 06:55:03;;;;;;;11.38;8.23;;;;;;;18.33;100.00;101033.13;3579636;40;20051;-63
2021/07/24 06:57:32;;;;;;;12.73;9.20;;;;;;;18.35;100.00;101031.91;3578298;40;20037;-63
2021/07/24 06:59:58;;;;;;;12.23;8.63;;;;;;;18.76;100.00;101025.25;3583797;40;20056;-63
2021/07/24 07:02:25;;;;;;;12.30;8.25;;;;;;;19.05;100.00;101015.41;3578889;40;20061;-63
2021/07/24 07:04:51;;;;;;;10.93;7.82;;;;;;;18.85;100.00;101021.41;3579739;40;20056;-61
2021/07/24 07:07:20;;;;;;;13.13;9.20;;;;;;;18.97;100.00;101018.25;3583627;40;20043;-62
2021/07/24 07:09:46;;;;;;;9.75;7.63;;;;;;;19.32;100.00;101022.09;3588474;40;20072;-63
2021/07/24 07:12:13;;;;;;;12.68;8.20;;;;;;;19.13;100.00;101009.88;3583411;40;20033;-63
2021/07/24 07:14:40;;;;;;;13.30;7.93;;;;;;;19.63;100.00;101017.44;3580107;40;20041;-65
2021/07/24 07:17:07;;;;;;;10.93;7.90;;;;;;;19.97;100.00;101011.31;3584008;40;20306;-63
2021/07/24 07:19:35;;;;;;;11.43;8.10;;;;;;;20.08;100.00;101009.94;3587496;40;20035;-63
2021/07/24 07:22:03;;;;;;;10.40;7.70;;;;;;;20.23;100.00;101001.66;3581003;40;20040;-64
2021/07/24 07:24:29;;;;;;;14.33;8.33;;;;;;;20.00;100.00;101010.09;3586830;40;20048;-64
2021/07/24 07:26:56;;;;;;;11.70;8.10;;;;;;;20.33;100.00;101001.34;3581474;40;20025;-62
2021/07/24 07:29:22;;;;;;;11.43;7.60;;;;;;;20.56;100.00;101004.69;3668925;22;20063;-64
2021/07/24 07:31:50;;;;;;;11.68;7.78;;;;;;;20.76;100.00;100988.47;3647333;22;20409;-63
2021/07/24 07:34:16;;;;;;;10.20;8.27;;;;;;;20.59;100.00;100990.63;3597562;40;20314;-63
2021/07/24 07:36:43;;;;;;;10.48;7.80;;;;;;;20.24;100.00;101001.50;3595622;40;20036;-63
2021/07/24 07:39:09;;;;;;;11.10;7.97;;;;;;;20.64;100.00;100990.88;3590986;40;20030;-63
2021/07/24 07:41:36;;;;;;;12.73;7.10;;;;;;;20.81;100.00;100993.31;3594118;39;20042;-64
2021/07/24 07:44:02;;;;;;;9.55;7.20;;;;;;;21.17;100.00;100987.63;3593599;39;20050;-64
2021/07/24 07:46:29;;;;;;;10.32;7.88;;;;;;;21.24;100.00;100976.69;3596280;40;20035;-64
2021/07/24 07:48:59;;;;;;;11.05;7.68;;;;;;;21.22;100.00;100967.88;3597325;40;20036;-63
2021/07/24 07:51:25;;;;;;;11.88;7.22;;;;;;;21.09;100.00;100973.28;3597886;40;20033;-64
2021/07/24 07:53:52;;;;;;;10.25;7.80;;;;;;;21.22;100.00;100959.66;3593572;40;20036;-63
2021/07/24 07:56:18;;;;;;;9.63;7.28;;;;;;;21.09;100.00;100949.47;3597930;40;20062;-62
2021/07/24 07:58:45;;;;;;;12.55;8.02;;;;;;;20.97;100.00;100962.91;3597438;40;20035;-63
2021/07/24 08:01:12;;;;;;;11.65;8.57;;;;;;;20.91;100.00;100960.97;3598219;40;20374;-62
2021/07/24 08:03:39;;;;;;;13.50;7.55;;;;;;;20.76;100.00;100957.50;3597438;40;20028;-63
2021/07/24 08:06:07;;;;;;;9.80;7.18;;;;;;;20.80;100.00;100946.00;3593296;39;20031;-63
2021/07/24 08:08:33;;;;;;;9.52;7.68;;;;;;;20.57;100.00;100951.69;3596845;39;20034;-63
2021/07/24 08:11:00;;;;;;;10.32;7.65;;;;;;;20.50;100.00;100947.22;3595309;40;20044;-63
2021/07/24 08:13:27;;;;;;;10.30;7.13;;;;;;;20.72;100.00;100950.78;3596729;40;20141;-63
2021/07/24 08:15:54;;;;;;;10.65;7.53;;;;;;;20.86;100.00;100941.56;3598334;40;20040;-62
2021/07/24 08:18:20;;;;;;;11.02;6.90;;;;;;;20.73;100.00;100936.03;3595092;39;20040;-63
2021/07/24 08:20:47;;;;;;;9.30;7.85;;;;;;;20.77;100.00;100926.38;3597726;40;20069;-64
2021/07/24 08:23:15;;;;;;;8.75;6.88;;;;;;;21.14;100.00;100918.75;3595421;39;20332;-63
2021/07/24 08:25:42;;;;;;;8.40;7.03;;;;;;;21.33;100.00;100920.75;3598481;40;20058;-63
2021/07/24 08:28:08;;;;;;;11.82;7.13;;;;;;;21.30;100.00;100921.16;3596886;39;20418;-63
2021/07/24 08:30:35;;;;;;;11.02;8.10;;;;;;;21.62;100.00;100924.19;3596083;40;20145;-63
2021/07/24 08:33:02;;;;;;;10.43;7.70;;;;;;;21.33;100.00;100909.78;3583446;39;20052;-63
2021/07/24 08:35:28;;;;;;;9.15;7.43;;;;;;;21.57;100.00;100909.44;3623843;22;20696;-62
2021/07/24 08:37:55;;;;;;;12.05;7.85;;;;;;;21.83;100.00;100917.72;3603821;39;20404;-63
2021/07/24 08:40:23;;;;;;;10.23;7.60;;;;;;;21.85;100.00;100923.00;3599996;39;20060;-62
2021/07/24 08:42:49;;;;;;;11.27;7.85;;;;;;;21.82;100.00;100917.91;3600255;39;20028;-62
2021/07/24 08:45:17;;;;;;;11.05;8.02;;;;;;;21.81;100.00;100917.06;3599231;39;20036;-62
2021/07/24 08:47:45;;;;;;;10.70;7.68;;;;;;;22.03;100.00;100925.09;3600446;39;20036;-62
2021/07/24 08:50:13;;;;;;;10.63;7.80;;;;;;;22.22;100.00;100923.41;3601486;39;20298;-63
2021/07/24 08:52:40;;;;;;;10.70;7.38;;;;;;;22.49;100.00;100916.00;3602260;39;20413;-63
2021/07/24 08:55:08;;;;;;;10.52;7.60;;;;;;;22.46;100.00;100912.88;3599925;39;20042;-61
2021/07/24 08:57:41;;;;;;;9.40;7.53;;;;;;;22.78;100.00;100908.34;3604532;39;20687;-67
2021/07/24 09:00:11;;;;;;;9.75;8.07;;;;;;;22.51;100.00;100910.31;3602361;39;20063;-63
2021/07/24 09:02:40;;;;;;;10.30;7.72;;;;;;;22.85;100.00;100892.72;3602656;39;20028;-64
2021/07/24 09:05:09;;;;;;;13.02;8.70;;;;;;;22.78;100.00;100899.28;3603925;39;20291;-62
2021/07/24 09:07:38;;;;;;;9.95;8.02;;;;;;;23.09;100.00;100902.09;3600653;39;20040;-62
2021/07/24 09:10:06;;;;;;;13.85;8.82;;;;;;;23.08;100.00;100902.31;3600657;39;20431;-63
2021/07/24 09:12:35;;;;;;;11.32;8.30;;;;;;;23.39;100.00;100896.06;3599425;39;20039;-62
2021/07/24 09:15:04;;;;;;;10.05;8.43;;;;;;;23.41;100.00;100891.19;3601918;39;20034;-63
2021/07/24 09:17:30;;;;;;;10.00;7.50;;;;;;;23.17;100.00;100895.53;3603608;39;20372;-64
2021/07/24 09:19:57;;;;;;;11.10;8.05;;;;;;;22.90;100.00;100884.66;3600443;39;20032;-64
2021/07/24 09:22:31;;;;;;;11.82;7.93;;;;;;;23.16;100.00;100879.28;3598758;39;20039;-62
2021/07/24 09:25:09;;;;;;;11.60;8.55;;;;;;;23.68;100.00;100880.03;3603719;39;20051;-63
2021/07/24 09:27:37;;;;;;;13.80;8.90;;;;;;;23.84;100.00;100886.06;3601912;39;20046;-63
2021/07/24 09:30:05;;;;;;;11.23;9.10;;;;;;;23.86;100.00;100878.44;3601185;39;20024;-63
2021/07/24 09:32:32;;;;;;;;;;;;;;;23.73;100.00;100874.72;3605483;39;20044;-63
2021/07/24 09:34:58;;;;;;;14.18;9.00;;;;;;;23.75;100.00;100872.56;3606331;39;19935;-64
2021/07/24 09:37:26;;;;;;;12.43;8.88;;;;;;;24.05;100.00;100871.09;3599030;39;20084;-63
2021/07/24 09:39:53;;;;;;;12.00;8.03;;;;;;;24.09;100.00;100867.66;3602065;39;20039;-63
2021/07/24 09:42:20;;;;;;;11.98;8.93;;;;;;;24.40;100.00;100863.13;3597895;39;20036;-64
2021/07/24 09:44:47;;;;;;;14.13;9.52;;;;;;;24.72;100.00;100863.03;3598317;39;20044;-63
2021/07/24 09:47:28;;;;;;;13.35;10.82;;;;;;;24.92;100.00;100861.91;3600913;39;20027;-63
2021/07/24 09:50:09;;;;;;;13.35;9.60;;;;;;;24.41;100.00;100862.06;3603627;39;20039;-62
2021/07/24 09:52:45;;;;;;;15.50;9.80;;;;;;;24.40;100.00;100867.81;3600132;39;20051;-64
2021/07/24 09:55:23;;;;;;;14.07;10.27;;;;;;;24.19;100.00;100861.66;3600858;39;20330;-63
2021/07/24 09:57:50;;;;;;;12.38;9.75;;;;;;;23.97;100.00;100858.50;3600306;39;20043;-63
2021/07/24 10:00:27;;;;;;;14.23;9.95;;;;;;;24.00;100.00;100868.16;3601809;39;20041;-65
2021/07/24 10:03:00;;;;;;;13.10;10.02;;;;;;;24.16;100.00;100862.13;3600711;39;20035;-63
2021/07/24 10:05:33;;;;;;;13.82;9.38;;;;;;;24.66;100.00;100869.41;3601888;39;20704;-65
2021/07/24 10:10:29;;;;;;;15.02;10.55;;;;;;;24.98;100.00;100869.25;3617363;22;20076;-63
2021/07/24 10:12:56;;;;;;;15.32;10.70;;;;;;;24.71;100.00;100874.25;3577634;40;20036;-62
2021/07/24 10:15:25;;;;;;;13.38;10.55;;;;;;;24.74;100.00;100863.63;3578771;40;20048;-64
2021/07/24 10:17:51;;;;;;;14.85;11.02;;;;;;;24.58;100.00;100869.72;3578388;40;20052;-61
2021/07/24 10:20:20;;;;;;;15.38;9.40;;;;;;;24.90;100.00;100869.59;3579324;40;20041;-62
2021/07/24 10:22:46;;;;;;;14.25;9.35;;;;;;;25.05;100.00;100875.50;3581278;40;20025;-64
2021/07/24 10:25:13;;;;;;;12.95;9.65;;;;;;;25.55;100.00;100868.91;3579628;40;20153;-64
2021/07/24 10:27:42;;;;;;;15.70;9.77;;;;;;;25.45;100.00;100869.47;3580148;40;20287;-64
2021/07/24 10:30:10;;;;;;;14.07;10.13;;;;;;;25.25;100.00;100863.38;3576995;40;20117;-64
2021/07/24 10:32:38;;;;;;;14.60;10.10;;;;;;;25.19;100.00;100865.16;3578150;40;20353;-63
2021/07/24 10:35:06;;;;;;;12.73;10.15;;;;;;;24.98;100.00;100869.25;3579015;40;20029;-63
2021/07/24 10:37:38;;;;;;;12.40;9.47;;;;;;;25.21;100.00;100874.03;3578242;40;20047;-63
2021/07/24 10:40:33;;;;;;;15.55;9.65;;;;;;;25.19;100.00;100876.16;3573262;40;20037;-63
2021/07/24 10:43:02;;;;;;;14.05;10.85;;;;;;;25.22;100.00;100875.72;3578344;40;20034;-62
2021/07/24 10:45:51;;;;;;;13.68;10.60;;;;;;;24.48;100.00;100881.25;3578337;40;20111;-63
2021/07/24 10:48:19;;;;;;;16.83;10.85;;;;;;;24.81;100.00;100869.88;3576023;40;20041;-63
2021/07/24 10:51:16;;;;;;;17.65;11.27;;;;;;;24.72;100.00;100884.19;3577723;40;20040;-64
2021/07/24 10:53:56;;;;;;;15.13;11.50;;;;;;;24.59;100.00;100879.69;3610866;22;20059;-64
2021/07/24 10:56:37;;;;;;;15.55;11.57;;;;;;;24.40;100.00;100882.38;3575479;40;20312;-63
2021/07/24 10:59:21;;;;;;;15.10;11.85;;;;;;;24.23;100.00;100871.13;3577019;40;20635;-63
2021/07/24 11:01:48;;;;;;;17.17;12.05;;;;;;;24.28;100.00;100884.22;3576599;40;20395;-64
2021/07/24 11:04:41;;;;;;;15.98;11.13;;;;;;;24.22;100.00;100885.97;3576508;40;20255;-63
2021/07/24 11:07:46;;;;;;;17.05;12.45;;;;;;;24.26;100.00;100872.59;3576608;40;20095;-64
2021/07/24 11:10:12;;;;;;;15.20;12.48;;;;;;;24.20;100.00;100873.50;3576798;40;20069;-64
2021/07/24 11:12:41;;;;;;;18.20;12.50;;;;;;;24.18;100.00;100859.97;3577781;40;20114;-63
2021/07/24 11:15:09;;;;;;;18.63;12.13;;;;;;;23.85;100.00;100874.84;3577860;40;20040;-63
2021/07/24 11:17:36;;;;;;;16.88;13.38;;;;;;;23.92;100.00;100861.06;3575947;40;20394;-64
2021/07/24 11:20:48;;;;;;;19.08;12.50;;;;;;;24.18;100.00;100857.22;3575909;40;20394;-63
2021/07/24 11:23:14;;;;;;;17.88;11.18;;;;;;;24.42;100.00;100857.41;3575497;40;20114;-64
2021/07/24 11:25:42;;;;;;;19.40;13.50;;;;;;;24.25;100.00;100862.66;3576505;40;20329;-64
2021/07/24 11:28:17;;;;;;;13.27;10.97;;;;;;;24.24;100.00;100859.06;3575702;40;20069;-65
2021/07/24 11:30:44;;;;;;;17.35;11.85;;;;;;;24.58;100.00;100858.72;3576678;40;20037;-66